Stations météo

réclame
Mon MeteoGroup
Wijk aan Zee, Pays-Bas (6257): Température de l'air & dewpoint: 10.12.2017 02:00:00 - 16.12.2017 02:00:00 (CET)Wijk aan Zee, Pays-Bas (6257): Température de l'air 5cm: 10.12.2017 02:00:00 - 16.12.2017 02:00:00 (CET)Wijk aan Zee, Pays-Bas (6257): Quantités de précipitations: 10.12.2017 02:00:00 - 16.12.2017 02:00:00 (CET)
Date & Time tt [°C] td [°C] tt 5cm [°C] rr [mm]
16.12.2017 02:00:00 4,0 1,9 2,6 0,0
16.12.2017 01:00:00 2,6 1,3 0,6 0,0
16.12.2017 00:00:00 0,5 0,1 -0,8 0,0
15.12.2017 23:00:00 0,9 0,8 -0,4 0,1
15.12.2017 22:00:00 -0,9 -1,0 -1,7 0,0
15.12.2017 21:00:00 -0,9 -1,2 -1,6 0,0
15.12.2017 20:00:00 0,2 -0,3 -1,0 0,0
15.12.2017 19:00:00 1,9 1,2 0,7 0,0
15.12.2017 18:00:00 3,7 3,3 3,5 0,0
15.12.2017 17:00:00 3,6 3,0 3,3 0,0
15.12.2017 16:00:00 4,8 3,6 4,4 0,1
15.12.2017 15:00:00 4,4 3,6 4,3 0,2
15.12.2017 14:00:00 4,2 3,7 4,2 0,4
15.12.2017 13:00:00 4,0 3,1 4,0 0,6
15.12.2017 12:00:00 4,0 3,0 4,1 0,0
15.12.2017 11:00:00 3,9 2,8 3,7 1,1
15.12.2017 10:00:00 3,8 2,9 3,6 0,1
15.12.2017 09:00:00 3,3 2,6 3,1 0,0
15.12.2017 08:00:00 3,1 2,3 2,7 0,0
15.12.2017 07:00:00 3,2 2,3 2,9 0,1
15.12.2017 06:00:00 3,2 2,3 2,9 0,3
15.12.2017 05:00:00 3,4 2,2 3,3 0,6
15.12.2017 04:00:00 4,0 2,7 3,6 0,2
15.12.2017 03:00:00 3,9 2,4 3,4 0,0
15.12.2017 02:00:00 4,6 3,1 4,1 0,0
15.12.2017 01:00:00 5,1 3,1 4,4 0,0
15.12.2017 00:00:00 4,4 2,1 3,5 0,0
14.12.2017 23:00:00 4,2 2,4 3,6 0,2
14.12.2017 22:00:00 4,1 2,7 3,6 0,0
14.12.2017 21:00:00 3,9 2,5 3,7 0,6
14.12.2017 20:00:00 4,4 1,9 3,8 0,0
14.12.2017 19:00:00 5,1 1,7 4,7 0,0
14.12.2017 18:00:00 5,5 1,6 4,4 0,3
14.12.2017 17:00:00 4,3 1,5 3,6 0,9
14.12.2017 16:00:00 6,2 1,6 5,7 0,0
14.12.2017 15:00:00 6,1 1,9 5,7 0,0
14.12.2017 14:00:00 6,2 2,1 6,0 0,0
14.12.2017 13:00:00 4,5 1,8 4,5 0,3
14.12.2017 12:00:00 4,7 1,6 4,6 0,3
14.12.2017 11:00:00 6,2 1,8 5,7 0,0
14.12.2017 10:00:00 5,4 1,5 4,8 0,1
14.12.2017 09:00:00 5,5 1,4 4,8 0,1
14.12.2017 08:00:00 5,0 1,7 4,4 0,0
14.12.2017 07:00:00 5,5 0,9 5,0 0,0
14.12.2017 06:00:00 5,4 1,9 4,7 0,5
14.12.2017 05:00:00 3,1 1,6 3,0 1,7
14.12.2017 04:00:00 3,6 1,9 3,5 0,8
14.12.2017 03:00:00 5,7 1,0 5,5 0,0
14.12.2017 02:00:00 6,1 1,1 5,7 0,0
14.12.2017 01:00:00 5,9 1,5 5,4 0,0
14.12.2017 00:00:00 6,4 2,2 5,5 0,0
13.12.2017 23:00:00 6,3 1,9 5,7 0,0
13.12.2017 22:00:00 6,7 2,8 6,2 0,2
13.12.2017 21:00:00 7,0 5,1 6,7 2,6
13.12.2017 20:00:00 7,0 5,8 6,5 2,1
13.12.2017 19:00:00 6,2 5,2 5,9 0,3
13.12.2017 18:00:00 5,9 4,7 5,9 0,3
13.12.2017 17:00:00 7,0 5,3 6,7 0,0
13.12.2017 16:00:00 7,5 5,7 7,2 0,0
13.12.2017 15:00:00 7,4 5,6 7,1 0,2
13.12.2017 14:00:00 7,4 5,3 - 0,0
13.12.2017 13:00:00 7,1 6,4 - 0,3
13.12.2017 12:00:00 4,7 4,0 4,6 0,4
13.12.2017 11:00:00 4,4 3,5 4,2 0,1
13.12.2017 10:00:00 4,1 3,0 3,8 0,1
13.12.2017 09:00:00 3,8 2,7 3,5 0,1
13.12.2017 08:00:00 3,6 2,3 3,1 1,3
13.12.2017 07:00:00 3,4 1,7 2,9 0,3
13.12.2017 06:00:00 3,4 1,4 2,6 0,1
13.12.2017 05:00:00 3,3 1,3 2,6 0,1
13.12.2017 04:00:00 3,8 0,8 2,9 0,0
13.12.2017 03:00:00 2,9 0,4 2,2 0,0
13.12.2017 02:00:00 2,8 0,4 2,2 0,0
13.12.2017 01:00:00 2,5 0,0 1,8 0,0
13.12.2017 00:00:00 2,7 0,0 2,0 0,0
12.12.2017 23:00:00 3,3 1,2 2,3 0,0
12.12.2017 22:00:00 2,7 1,1 1,9 0,0
12.12.2017 21:00:00 3,1 1,1 2,3 0,0
12.12.2017 20:00:00 3,3 0,7 2,3 0,0
12.12.2017 19:00:00 3,1 0,6 2,1 0,0
12.12.2017 18:00:00 3,1 1,5 2,4 0,0
12.12.2017 17:00:00 3,6 1,4 2,8 0,0
12.12.2017 16:00:00 4,0 1,9 3,1 0,0
12.12.2017 15:00:00 4,7 0,3 3,5 0,0
12.12.2017 14:00:00 4,7 0,7 4,1 0,0
12.12.2017 13:00:00 5,9 0,3 5,0 0,0
12.12.2017 12:00:00 6,3 -0,6 4,6 0,0
12.12.2017 11:00:00 5,9 -0,2 4,1 0,0
12.12.2017 10:00:00 5,4 1,0 3,8 0,0
12.12.2017 09:00:00 3,4 0,9 2,2 0,0
12.12.2017 08:00:00 4,4 -0,1 2,6 0,0
12.12.2017 07:00:00 3,7 0,8 1,8 0,1
12.12.2017 06:00:00 3,5 -0,3 1,3 0,0
12.12.2017 05:00:00 3,1 -0,7 0,6 0,0
12.12.2017 04:00:00 4,7 -0,1 0,4 0,0
12.12.2017 03:00:00 3,7 -0,3 0,5 0,5
12.12.2017 02:00:00 1,3 -0,3 0,6 0,1
12.12.2017 01:00:00 1,9 -0,2 0,6 0,1
12.12.2017 00:00:00 1,1 -0,2 0,6 0,2
11.12.2017 23:00:00 1,1 0,1 0,5 0,6
11.12.2017 22:00:00 0,9 0,4 0,5 1,8
11.12.2017 21:00:00 0,6 0,1 0,5 0,8
11.12.2017 20:00:00 0,1 0,0 0,5 0,5
11.12.2017 19:00:00 0,0 -0,1 0,5 0,8
11.12.2017 18:00:00 -0,1 -0,4 0,5 1,2
11.12.2017 17:00:00 -0,2 -0,6 0,5 0,9
11.12.2017 16:00:00 -0,3 -0,7 0,3 0,4
11.12.2017 15:00:00 -0,4 -0,6 0,3 0,5
11.12.2017 14:00:00 -0,1 -0,5 0,4 0,6
11.12.2017 13:00:00 0,2 -0,9 0,4 0,0
11.12.2017 12:00:00 0,8 -1,1 0,4 0,0
11.12.2017 11:00:00 0,9 -0,9 0,4 0,0
11.12.2017 10:00:00 0,9 -0,9 0,2 0,0
11.12.2017 09:00:00 0,8 -0,7 0,0 0,0
11.12.2017 08:00:00 0,3 -0,6 -0,5 0,0
11.12.2017 07:00:00 -0,6 -1,6 -1,0 0,0
11.12.2017 06:00:00 -0,5 -1,2 -1,4 0,0
11.12.2017 05:00:00 -0,4 -1,3 -1,7 0,0
11.12.2017 04:00:00 -0,5 -1,2 -1,5 0,0
11.12.2017 03:00:00 0,2 -0,3 -0,6 0,0
11.12.2017 02:00:00 0,1 -0,2 0,0 0,0
11.12.2017 01:00:00 0,2 -0,3 0,3 0,1
11.12.2017 00:00:00 0,5 -0,7 0,1 0,2
10.12.2017 23:00:00 0,7 -1,1 -0,1 0,5
10.12.2017 22:00:00 1,0 0,3 0,2 1,2
10.12.2017 21:00:00 0,1 0,0 0,2 0,3
10.12.2017 20:00:00 0,0 -0,1 0,3 0,7
10.12.2017 19:00:00 0,0 -0,2 0,2 1,1
10.12.2017 18:00:00 0,0 -0,2 0,2 1,6
10.12.2017 17:00:00 0,0 -0,3 - 1,7
10.12.2017 16:00:00 0,2 -0,2 0,2 2,3
10.12.2017 15:00:00 0,1 -0,1 0,3 0,9
10.12.2017 14:00:00 0,0 -0,3 0,2 1,2
10.12.2017 13:00:00 0,1 -0,3 0,2 0,7
10.12.2017 12:00:00 0,7 -0,3 0,6 0,6
10.12.2017 11:00:00 1,9 0,5 1,8 0,0
10.12.2017 10:00:00 1,4 0,4 1,4 0,1
10.12.2017 09:00:00 1,8 0,3 1,6 0,0
10.12.2017 08:00:00 1,6 0,1 1,4 0,0
10.12.2017 07:00:00 1,5 -0,5 1,2 0,0
10.12.2017 06:00:00 1,9 -1,0 1,4 0,0
10.12.2017 05:00:00 2,5 -0,6 2,2 0,0
10.12.2017 04:00:00 2,5 0,2 2,3 0,0
10.12.2017 03:00:00 3,8 -0,7 2,8 0,1
10.12.2017 02:00:00 3,2 -0,5 2,4 0,7

tt = Température de l'air
td = dewpoint
tt 5cm = Température de l'air 5cm
rr = Quantités de précipitations

stations d'obs. à proximité